Time;durP1;ratioP1;P1;durP2;ratioP2;P2;SDS_P1;SDS_P2;PMS_P1;PMS_P2;Temp;Humidity;BMP_temperature;BMP_pressure;BME280_temperature;BME280_humidity;BME280_pressure;Samples;Min_cycle;Max_cycle;Signal;HPM_P1;HPM_P2
2021/10/26 00:00:04;;;;;;;21.97;11.48;;;;;;;2.46;71.91;100454.36;1685172;83;21746;-66
2021/10/26 00:02:32;;;;;;;20.45;11.70;;;;;;;2.42;72.22;100450.72;1695366;83;21412;-67
2021/10/26 00:05:04;;;;;;;19.12;11.85;;;;;;;2.38;72.42;100451.81;1696415;83;20960;-67
2021/10/26 00:07:32;;;;;;;25.32;11.95;;;;;;;2.35;72.77;100456.84;1694998;84;20966;-67
2021/10/26 00:10:01;;;;;;;19.37;12.25;;;;;;;2.32;73.37;100444.56;1688962;83;21452;-67
2021/10/26 00:12:32;;;;;;;18.92;10.55;;;;;;;2.32;73.90;100453.68;1685657;83;21510;-67
2021/10/26 00:15:00;;;;;;;25.40;12.63;;;;;;;2.31;74.39;100446.69;1684289;85;20946;-67
2021/10/26 00:17:29;;;;;;;21.37;12.13;;;;;;;2.30;74.92;100450.11;1695311;84;21428;-67
2021/10/26 00:19:57;;;;;;;24.35;11.88;;;;;;;2.29;75.37;100442.23;1695521;84;21427;-67
2021/10/26 00:22:25;;;;;;;24.35;11.85;;;;;;;2.29;75.89;100440.52;1689023;84;20958;-67
2021/10/26 00:24:53;;;;;;;21.65;11.70;;;;;;;2.29;76.30;100439.63;1696394;83;20957;-67
2021/10/26 00:27:25;;;;;;;19.90;11.28;;;;;;;2.27;76.36;100436.06;1696048;83;20904;-67
2021/10/26 00:29:53;;;;;;;23.83;12.73;;;;;;;2.23;76.76;100434.13;1695787;83;20944;-67
2021/10/26 00:32:20;;;;;;;19.48;11.73;;;;;;;2.18;76.94;100436.11;1696125;83;20988;-67
2021/10/26 00:34:48;;;;;;;22.87;12.30;;;;;;;2.17;77.05;100428.23;1696667;84;20968;-67
2021/10/26 00:37:17;;;;;;;22.90;12.50;;;;;;;2.17;77.23;100434.73;1696069;83;21417;-67
2021/10/26 00:39:45;;;;;;;22.07;12.60;;;;;;;2.16;77.55;100427.74;1695248;84;21110;-67
2021/10/26 00:42:13;;;;;;;26.33;12.60;;;;;;;2.17;78.08;100423.02;1695170;84;21486;-67
2021/10/26 00:44:41;;;;;;;24.45;11.97;;;;;;;2.18;78.47;100419.19;1695243;84;21509;-64
2021/10/26 00:47:10;;;;;;;25.55;12.60;;;;;;;2.19;78.69;100420.08;1675164;84;20977;-67
2021/10/26 00:49:38;;;;;;;26.55;12.13;;;;;;;2.19;78.88;100422.68;1695144;84;21438;-66
2021/10/26 00:52:07;;;;;;;23.90;12.15;;;;;;;2.18;79.06;100423.09;1695038;84;20917;-66
2021/10/26 00:54:35;;;;;;;23.98;12.33;;;;;;;2.19;79.16;100422.27;1675087;84;20929;-67
2021/10/26 00:57:06;;;;;;;22.82;12.07;;;;;;;2.18;79.30;100421.79;1694285;84;21447;-66
2021/10/26 00:59:36;;;;;;;27.80;12.53;;;;;;;2.20;79.46;100421.86;1668650;84;20939;-66
2021/10/26 01:02:05;;;;;;;26.52;12.20;;;;;;;2.19;79.74;100425.28;1692125;84;21115;-67
2021/10/26 01:04:35;;;;;;;21.62;11.68;;;;;;;2.18;79.96;100419.19;1695073;84;20881;-66
2021/10/26 01:07:03;;;;;;;23.15;12.30;;;;;;;2.17;80.20;100421.72;1695128;84;20937;-66
2021/10/26 01:09:32;;;;;;;23.40;12.20;;;;;;;2.18;80.48;100424.80;1665753;86;21434;-66
2021/10/26 01:12:01;;;;;;;23.50;11.75;;;;;;;2.15;80.66;100419.05;1660191;84;21520;-67
2021/10/26 01:14:30;;;;;;;22.42;11.68;;;;;;;2.13;80.90;100419.38;1695066;84;21048;-66
2021/10/26 01:17:08;;;;;;;21.27;12.45;;;;;;;2.13;81.18;100416.78;1687919;84;21000;-66
2021/10/26 01:19:47;;;;;;;28.98;10.80;;;;;;;2.12;81.34;100416.70;1695115;84;20956;-66
2021/10/26 01:22:17;;;;;;;24.50;12.18;;;;;;;2.11;81.46;100414.92;1695086;84;21428;-66
2021/10/26 01:24:46;;;;;;;21.55;11.97;;;;;;;2.10;81.56;100407.52;1695078;84;21498;-66
2021/10/26 01:27:15;;;;;;;19.42;11.55;;;;;;;2.08;81.65;100413.47;1695177;84;21131;-66
2021/10/26 01:29:44;;;;;;;22.25;11.20;;;;;;;2.06;81.88;100412.51;1695254;84;21384;-66
2021/10/26 01:32:14;;;;;;;20.85;11.15;;;;;;;2.05;82.25;100408.12;1695085;84;20929;-66
2021/10/26 01:34:45;;;;;;;25.40;11.75;;;;;;;2.03;82.64;100403.25;1695341;84;21423;-66
2021/10/26 01:37:14;;;;;;;22.93;11.18;;;;;;;2.00;83.07;100400.50;1695150;84;20977;-67
2021/10/26 01:39:44;;;;;;;23.77;11.83;;;;;;;2.00;83.41;100403.11;1695109;84;21912;-67
2021/10/26 01:42:13;;;;;;;22.22;10.78;;;;;;;1.98;83.67;100395.23;1684565;83;20886;-68
2021/10/26 01:44:41;;;;;;;23.55;12.13;;;;;;;1.96;83.90;100394.27;1684655;83;21480;-67
2021/10/26 01:47:11;;;;;;;78.67;15.18;;;;;;;1.96;84.01;100392.07;1683177;83;20873;-67
2021/10/26 01:49:41;;;;;;;29.95;12.45;;;;;;;1.94;84.00;100389.39;1684818;83;20968;-67
2021/10/26 01:52:12;;;;;;;21.37;11.25;;;;;;;1.92;84.02;100387.13;1684565;83;21425;-67
2021/10/26 01:54:42;;;;;;;21.40;11.38;;;;;;;1.90;84.16;100387.47;1684718;83;21423;-66
2021/10/26 01:57:16;;;;;;;22.60;11.23;;;;;;;1.89;84.27;100378.77;1685012;83;21456;-66
2021/10/26 01:59:47;;;;;;;36.60;12.43;;;;;;;1.85;84.35;100379.41;1683850;85;21461;-68
2021/10/26 02:02:21;;;;;;;20.85;10.48;;;;;;;1.81;84.24;100368.38;1684674;83;21590;-63
2021/10/26 02:04:54;;;;;;;18.80;9.95;;;;;;;1.76;84.15;100370.27;1683602;84;21453;-66
2021/10/26 02:07:24;;;;;;;16.23;10.65;;;;;;;1.70;84.40;100371.28;1683783;83;20961;-66
2021/10/26 02:09:57;;;;;;;22.30;10.72;;;;;;;1.67;84.60;100364.62;1684899;83;21449;-62
2021/10/26 02:12:35;;;;;;;19.00;10.68;;;;;;;1.63;84.53;100368.78;1684437;85;21441;-63
2021/10/26 02:15:04;;;;;;;20.33;10.93;;;;;;;1.58;84.71;100365.96;1685104;83;20897;-69
2021/10/26 02:17:35;;;;;;;20.10;10.80;;;;;;;1.55;85.03;100364.92;1656327;85;21929;-65
2021/10/26 02:20:06;;;;;;;24.45;11.00;;;;;;;1.53;85.71;100357.45;1684440;83;21487;-65
2021/10/26 02:22:34;;;;;;;18.10;11.08;;;;;;;1.53;86.33;100357.05;1684553;83;21440;-64
2021/10/26 02:25:02;;;;;;;21.97;11.93;;;;;;;1.53;86.83;100350.95;1685062;83;20953;-65
2021/10/26 02:27:30;;;;;;;20.20;11.80;;;;;;;1.49;87.21;100351.21;1684657;83;21492;-66
2021/10/26 02:29:58;;;;;;;17.75;11.35;;;;;;;1.48;87.39;100350.73;1684905;85;21113;-65
2021/10/26 02:32:27;;;;;;;20.80;11.60;;;;;;;1.41;87.25;100349.91;1684565;85;21449;-65
2021/10/26 02:34:55;;;;;;;19.80;11.50;;;;;;;1.37;87.48;100354.89;1684919;83;21445;-65
2021/10/26 02:37:23;;;;;;;20.52;11.43;;;;;;;1.30;87.69;100345.00;1684563;85;20989;-65
2021/10/26 02:39:51;;;;;;;18.80;11.35;;;;;;;1.13;88.19;100345.05;1684686;85;21040;-65
2021/10/26 02:42:19;;;;;;;21.45;10.82;;;;;;;0.96;89.32;100347.21;1666343;84;21097;-65
2021/10/26 02:44:48;;;;;;;20.27;10.50;;;;;;;0.80;90.68;100340.31;1673491;84;20893;-66
2021/10/26 02:47:16;;;;;;;17.62;10.88;;;;;;;0.73;92.28;100346.00;1695052;84;20952;-64
2021/10/26 02:49:44;;;;;;;19.48;10.70;;;;;;;0.68;93.77;100351.77;1695261;84;21406;-66
2021/10/26 02:52:12;;;;;;;19.17;11.35;;;;;;;0.57;95.19;100346.02;1695010;84;20960;-63
2021/10/26 02:54:43;;;;;;;21.65;11.08;;;;;;;0.48;96.74;100343.83;1675436;84;21740;-63
2021/10/26 02:57:11;;;;;;;20.50;10.40;;;;;;;0.34;98.54;100342.58;1695018;84;20873;-65
2021/10/26 02:59:39;;;;;;;24.20;11.93;;;;;;;0.24;100.00;100340.80;1695246;84;21408;-64
2021/10/26 03:02:07;;;;;;;15.48;10.20;;;;;;;0.15;100.00;100336.81;1694964;84;21017;-65
2021/10/26 03:04:36;;;;;;;17.25;10.72;;;;;;;0.07;100.00;100329.92;1695066;84;21497;-63
2021/10/26 03:07:04;;;;;;;18.52;10.98;;;;;;;0.09;100.00;100330.00;1695294;84;21439;-66
2021/10/26 03:09:33;;;;;;;19.40;10.43;;;;;;;0.07;100.00;100342.00;1673975;84;20980;-65
2021/10/26 03:12:00;;;;;;;19.42;10.32;;;;;;;-0.02;100.00;100336.77;1695307;84;20892;-65
2021/10/26 03:14:28;;;;;;;18.55;9.43;;;;;;;-0.08;100.00;100336.84;1695021;84;21571;-65
2021/10/26 03:16:56;;;;;;;14.53;9.23;;;;;;;-0.07;100.00;100334.33;1695309;84;20999;-65
2021/10/26 03:19:24;;;;;;;23.40;10.03;;;;;;;-0.05;100.00;100338.30;1695163;84;21414;-65
2021/10/26 03:21:52;;;;;;;20.80;10.40;;;;;;;-0.07;100.00;100333.02;1695261;84;20928;-65
2021/10/26 03:24:19;;;;;;;20.35;9.75;;;;;;;-0.09;100.00;100337.64;1689152;84;20913;-63
2021/10/26 03:26:48;;;;;;;14.53;9.75;;;;;;;-0.07;100.00;100326.55;1680077;84;21482;-63
2021/10/26 03:29:16;;;;;;;15.32;10.40;;;;;;;-0.10;100.00;100328.97;1677750;84;20909;-62
2021/10/26 03:31:44;;;;;;;16.57;10.35;;;;;;;-0.09;100.00;100327.27;1695261;84;21919;-63
2021/10/26 03:34:21;;;;;;;16.10;10.03;;;;;;;-0.11;100.00;100335.37;1695004;84;20900;-63
2021/10/26 03:36:49;;;;;;;23.30;10.15;;;;;;;-0.16;100.00;100335.12;1695433;84;20992;-64
2021/10/26 03:39:17;;;;;;;18.45;10.00;;;;;;;-0.17;100.00;100335.03;1694970;84;20965;-64
2021/10/26 03:41:45;;;;;;;16.75;9.98;;;;;;;-0.18;100.00;100322.88;1694778;84;20961;-63
2021/10/26 03:44:13;;;;;;;17.48;10.10;;;;;;;-0.12;100.00;100325.80;1694775;84;21423;-62
2021/10/26 03:46:41;;;;;;;18.10;10.63;;;;;;;-0.06;100.00;100322.25;1694976;84;20865;-62
2021/10/26 03:49:10;;;;;;;17.95;10.63;;;;;;;-0.06;100.00;100328.33;1694775;84;21491;-62
2021/10/26 03:51:40;;;;;;;17.12;9.93;;;;;;;-0.06;100.00;100327.44;1695038;84;20965;-64
2021/10/26 03:54:09;;;;;;;16.48;9.43;;;;;;;-0.02;100.00;100322.91;1694768;84;20936;-63
2021/10/26 03:56:37;;;;;;;18.35;10.65;;;;;;;0.01;100.00;100324.40;1669343;84;21094;-64
2021/10/26 03:59:09;;;;;;;20.00;10.60;;;;;;;0.03;100.00;100316.30;1687801;84;20934;-63
2021/10/26 04:01:37;;;;;;;16.97;10.03;;;;;;;0.08;100.00;100315.25;1677853;84;20893;-64
2021/10/26 04:04:06;;;;;;;17.70;10.32;;;;;;;0.15;100.00;100323.84;1675204;84;20879;-64
2021/10/26 04:06:34;;;;;;;41.55;11.40;;;;;;;0.19;100.00;100316.71;1676924;84;21091;-64
2021/10/26 04:09:07;;;;;;;18.48;10.10;;;;;;;0.23;100.00;100317.36;1686945;84;21108;-63
2021/10/26 04:11:40;;;;;;;25.68;10.50;;;;;;;0.24;100.00;100311.36;1673074;84;20923;-64
2021/10/26 04:14:02;;;;;;;15.60;10.38;;;;;;;0.27;100.00;100307.63;1673451;84;21510;-63
2021/10/26 04:16:30;;;;;;;23.67;10.43;;;;;;;0.32;100.00;100311.36;1673935;84;21137;-63
2021/10/26 04:18:59;;;;;;;21.40;10.38;;;;;;;0.36;100.00;100313.71;1674329;84;20970;-63
2021/10/26 04:21:28;;;;;;;22.40;11.12;;;;;;;0.39;100.00;100316.06;1672230;85;21113;-62
2021/10/26 04:23:58;;;;;;;19.92;9.93;;;;;;;0.43;100.00;100306.73;1673622;84;21459;-62
2021/10/26 04:26:26;;;;;;;19.57;10.48;;;;;;;0.44;100.00;100304.21;1674037;84;20942;-62
2021/10/26 04:28:55;;;;;;;17.42;10.55;;;;;;;0.45;100.00;100302.10;1682017;84;20946;-62
2021/10/26 04:31:23;;;;;;;19.50;9.93;;;;;;;0.45;100.00;100299.51;1691568;84;20971;-61
2021/10/26 04:33:52;;;;;;;17.52;10.28;;;;;;;0.43;100.00;100299.83;1684742;84;21679;-62
2021/10/26 04:36:20;;;;;;;19.20;9.40;;;;;;;0.39;100.00;100304.38;1681950;84;20991;-62
2021/10/26 04:38:49;;;;;;;18.23;9.50;;;;;;;0.34;100.00;100304.95;1672104;85;20909;-63
2021/10/26 04:41:18;;;;;;;20.20;9.53;;;;;;;0.33;100.00;100305.77;1676601;84;21530;-62
2021/10/26 04:43:46;;;;;;;17.15;8.78;;;;;;;0.33;100.00;100317.03;1649776;86;20950;-63
2021/10/26 04:46:17;;;;;;;20.68;9.95;;;;;;;0.30;100.00;100305.20;1609971;88;21095;-63
2021/10/26 04:48:44;;;;;;;14.70;8.23;;;;;;;0.22;100.00;100314.28;1653329;86;20952;-63
2021/10/26 04:51:12;;;;;;;16.15;9.48;;;;;;;0.09;100.00;100318.33;1653890;85;21443;-62
2021/10/26 04:53:42;;;;;;;15.20;8.98;;;;;;;-0.06;100.00;100310.58;1654446;86;21014;-63
2021/10/26 04:56:10;;;;;;;16.32;9.10;;;;;;;-0.19;100.00;100316.80;1624240;87;20917;-62
2021/10/26 04:58:48;;;;;;;16.70;9.25;;;;;;;-0.22;100.00;100318.33;1539508;91;21134;-63
2021/10/26 05:01:18;;;;;;;14.73;8.65;;;;;;;-0.20;100.00;100318.01;1683565;84;21484;-63
2021/10/26 05:03:45;;;;;;;120.15;15.58;;;;;;;-0.22;100.00;100314.03;1677329;84;20957;-63
2021/10/26 05:06:13;;;;;;;26.75;9.43;;;;;;;-0.19;100.00;100312.02;1675038;85;20924;-63
2021/10/26 05:08:41;;;;;;;17.27;8.33;;;;;;;-0.18;100.00;100314.69;1615382;86;20931;-63
2021/10/26 05:11:13;;;;;;;17.07;9.43;;;;;;;-0.13;100.00;100320.12;1655213;86;21416;-63
2021/10/26 05:13:41;;;;;;;22.45;9.18;;;;;;;-0.09;100.00;100318.19;1650920;85;21455;-61
2021/10/26 05:16:26;;;;;;;13.85;9.08;;;;;;;-0.08;100.00;100315.68;1651452;85;20948;-62
2021/10/26 05:19:11;;;;;;;16.77;8.73;;;;;;;0.02;100.00;100313.22;1659920;84;20954;-62
2021/10/26 05:21:57;;;;;;;24.55;9.03;;;;;;;0.09;100.00;100319.63;1653766;85;20932;-62
2021/10/26 05:24:32;;;;;;;18.07;9.63;;;;;;;0.15;100.00;100329.03;1615239;86;21134;-62
2021/10/26 05:27:00;;;;;;;15.08;9.00;;;;;;;0.19;100.00;100324.50;1634151;87;20990;-63
2021/10/26 05:29:28;;;;;;;19.77;9.13;;;;;;;0.29;100.00;100326.77;1616269;86;21467;-63
2021/10/26 05:31:57;;;;;;;37.73;10.35;;;;;;;0.40;100.00;100326.03;1653531;85;21598;-62
2021/10/26 05:34:26;;;;;;;28.77;9.40;;;;;;;0.50;100.00;100332.23;1639390;86;20934;-63
2021/10/26 05:36:54;;;;;;;17.80;9.25;;;;;;;0.61;100.00;100334.58;1610978;88;21109;-63
2021/10/26 05:39:22;;;;;;;16.40;9.10;;;;;;;0.72;100.00;100339.43;1679719;84;20910;-63
2021/10/26 05:41:50;;;;;;;16.37;10.28;;;;;;;0.81;100.00;100340.80;1677792;84;20924;-62
2021/10/26 05:44:18;;;;;;;21.48;10.45;;;;;;;0.92;100.00;100348.73;1697124;84;20895;-66
2021/10/26 05:46:46;;;;;;;14.23;9.35;;;;;;;1.02;100.00;100350.53;1698216;84;20899;-62
2021/10/26 05:49:14;;;;;;;13.40;9.30;;;;;;;1.08;100.00;100346.53;1695789;83;21117;-62
2021/10/26 05:51:42;;;;;;;27.93;10.05;;;;;;;1.12;100.00;100352.78;1675148;84;21023;-61
2021/10/26 05:54:10;;;;;;;37.00;10.55;;;;;;;1.16;100.00;100358.20;1663925;84;20960;-61
2021/10/26 05:56:38;;;;;;;15.58;9.15;;;;;;;1.18;100.00;100353.97;1674718;85;21482;-62
2021/10/26 05:59:05;;;;;;;15.55;9.28;;;;;;;1.19;100.00;100354.45;1675736;83;20979;-63
2021/10/26 06:01:36;;;;;;;14.18;8.30;;;;;;;1.20;100.00;100354.05;1680958;84;21099;-62
2021/10/26 06:04:04;;;;;;;18.40;8.43;;;;;;;1.22;100.00;100358.51;1677157;84;20924;-60
2021/10/26 06:06:33;;;;;;;15.10;8.58;;;;;;;1.27;100.00;100356.14;1684744;83;20887;-63
2021/10/26 06:09:02;;;;;;;19.57;8.18;;;;;;;1.32;100.00;100357.66;1685001;84;21433;-63
2021/10/26 06:11:30;;;;;;;21.75;8.63;;;;;;;1.38;100.00;100360.16;1657911;84;21419;-62
2021/10/26 06:14:03;;;;;;;14.80;7.83;;;;;;;1.46;100.00;100364.06;1677348;84;21141;-63
2021/10/26 06:16:33;;;;;;;16.00;8.43;;;;;;;1.53;100.00;100365.26;1678959;84;21441;-64
2021/10/26 06:19:01;;;;;;;14.50;9.18;;;;;;;1.62;100.00;100368.30;1675587;85;20940;-65
2021/10/26 06:21:29;;;;;;;14.50;8.73;;;;;;;1.72;100.00;100367.93;1676188;84;21429;-65
2021/10/26 06:23:58;;;;;;;14.35;8.93;;;;;;;1.82;100.00;100368.85;1676688;84;20932;-64
2021/10/26 06:26:27;;;;;;;11.60;8.15;;;;;;;1.89;100.00;100367.06;1674499;85;21111;-65
2021/10/26 06:28:57;;;;;;;29.05;9.18;;;;;;;1.99;100.00;100373.59;1677083;83;21463;-64
2021/10/26 06:31:25;;;;;;;13.55;8.30;;;;;;;2.08;100.00;100375.33;1676097;85;21428;-64
2021/10/26 06:33:53;;;;;;;17.90;8.45;;;;;;;2.17;100.00;100370.55;1677671;84;20945;-64
2021/10/26 06:36:22;;;;;;;12.18;7.97;;;;;;;2.29;100.00;100378.03;1685839;83;20990;-64
2021/10/26 06:38:51;;;;;;;15.13;8.88;;;;;;;2.40;100.00;100379.45;1642884;85;21068;-64
2021/10/26 06:41:22;;;;;;;17.42;8.80;;;;;;;2.49;100.00;100381.58;1653472;85;20920;-65
2021/10/26 06:44:02;;;;;;;15.20;8.88;;;;;;;2.60;100.00;100376.85;1654020;85;20896;-62
2021/10/26 06:46:42;;;;;;;17.75;9.10;;;;;;;2.71;100.00;100373.02;1651662;85;20956;-62
2021/10/26 06:49:29;;;;;;;14.47;8.88;;;;;;;2.82;100.00;100372.66;1614256;88;21062;-62
2021/10/26 06:52:15;;;;;;;12.75;8.65;;;;;;;2.95;100.00;100371.52;1681728;83;21918;-63
2021/10/26 06:55:00;;;;;;;14.45;9.10;;;;;;;3.07;100.00;100364.23;1681572;83;21448;-63
2021/10/26 06:57:48;;;;;;;17.23;8.75;;;;;;;3.21;100.00;100366.11;1680586;83;20849;-63
2021/10/26 07:00:17;;;;;;;13.62;8.68;;;;;;;3.32;100.00;100362.27;1643407;85;20970;-62
2021/10/26 07:03:04;;;;;;;14.35;9.88;;;;;;;3.42;100.00;100357.02;1681436;84;20948;-62
2021/10/26 07:05:51;;;;;;;11.05;8.43;;;;;;;3.59;100.00;100358.61;1681796;83;21110;-62
2021/10/26 07:08:32;;;;;;;25.65;8.85;;;;;;;3.75;100.00;100361.42;1667029;84;20963;-63
2021/10/26 07:11:19;;;;;;;14.00;8.70;;;;;;;3.92;100.00;100363.43;1686644;84;20972;-63
2021/10/26 07:13:48;;;;;;;12.37;8.45;;;;;;;4.05;100.00;100360.47;1675719;83;21055;-64
2021/10/26 07:16:16;;;;;;;16.62;9.33;;;;;;;4.18;100.00;100364.44;1679365;84;21419;-63
2021/10/26 07:18:45;;;;;;;15.72;8.35;;;;;;;4.29;100.00;100355.33;1675501;83;21102;-66
2021/10/26 07:21:14;;;;;;;11.03;7.33;;;;;;;4.39;100.00;100350.52;1666981;85;20924;-68
2021/10/26 07:24:00;;;;;;;20.12;7.55;;;;;;;4.55;100.00;100359.80;1666824;86;20928;-68
2021/10/26 07:26:36;;;;;;;15.50;7.60;;;;;;;4.74;100.00;100355.75;1666409;86;20888;-68
2021/10/26 07:29:04;;;;;;;11.00;6.92;;;;;;;4.94;100.00;100347.73;1666825;86;20952;-68
2021/10/26 07:31:32;;;;;;;10.53;6.67;;;;;;;5.10;100.00;100342.20;1667030;85;21082;-68
2021/10/26 07:34:00;;;;;;;11.55;7.22;;;;;;;5.27;100.00;100348.05;1666836;85;20909;-62
2021/10/26 07:36:33;;;;;;;12.30;7.30;;;;;;;5.44;100.00;100342.06;1671461;84;21017;-62
2021/10/26 07:39:06;;;;;;;10.18;7.30;;;;;;;5.58;100.00;100341.67;1677724;84;21459;-63
2021/10/26 07:41:27;;;;;;;8.75;6.22;;;;;;;5.75;100.00;100338.33;1685139;83;20926;-62
2021/10/26 07:44:13;;;;;;;10.55;6.62;;;;;;;5.91;100.00;100338.00;1676105;83;21793;-64
2021/10/26 07:46:52;;;;;;;9.00;5.95;;;;;;;6.10;100.00;100332.91;1679358;83;20975;-62
2021/10/26 07:49:21;;;;;;;16.95;6.30;;;;;;;6.27;100.00;100329.52;1675127;85;21005;-62
2021/10/26 07:51:49;;;;;;;10.98;5.50;;;;;;;6.42;100.00;100324.72;1653414;86;20963;-62
2021/10/26 07:54:16;;;;;;;14.63;5.78;;;;;;;6.59;100.00;100325.20;1653486;85;20928;-63
2021/10/26 07:56:44;;;;;;;9.45;5.33;;;;;;;6.75;100.00;100321.31;1654051;86;21112;-64
2021/10/26 07:59:11;;;;;;;14.10;5.85;;;;;;;6.88;100.00;100313.83;1656067;86;20934;-63
2021/10/26 08:01:41;;;;;;;8.70;5.62;;;;;;;7.03;100.00;100317.70;1656147;86;20943;-63
2021/10/26 08:04:17;;;;;;;8.93;6.15;;;;;;;7.15;100.00;100308.88;1688125;83;20911;-62
2021/10/26 08:06:47;;;;;;;25.62;6.95;;;;;;;7.29;100.00;100320.61;1654417;86;21461;-62
2021/10/26 08:09:17;;;;;;;9.25;5.90;;;;;;;7.45;100.00;100312.70;1620480;85;39308;-62
2021/10/26 08:11:45;;;;;;;8.80;5.75;;;;;;;7.54;100.00;100307.67;1658912;85;20924;-62
2021/10/26 08:14:14;;;;;;;9.23;6.12;;;;;;;7.64;100.00;100307.08;1656607;86;21496;-63
2021/10/26 08:16:42;;;;;;;8.20;6.03;;;;;;;7.77;100.00;100306.51;1639781;85;20961;-62
2021/10/26 08:19:09;;;;;;;9.55;5.45;;;;;;;7.90;100.00;100290.17;1677980;84;20924;-63
2021/10/26 08:21:39;;;;;;;11.60;5.55;;;;;;;7.98;100.00;100295.60;1642362;84;21066;-63
2021/10/26 08:24:08;;;;;;;8.48;5.40;;;;;;;8.08;100.00;100298.04;1677980;84;21414;-62
2021/10/26 08:26:42;;;;;;;26.10;6.37;;;;;;;8.15;100.00;100290.33;1678133;84;20950;-63
2021/10/26 08:29:29;;;;;;;10.40;5.42;;;;;;;8.19;98.71;100288.22;1677403;84;20928;-69
2021/10/26 08:36:37;;;;;;;8.53;5.50;;;;;;;8.35;95.72;100282.89;1661618;86;21512;-63
2021/10/26 08:39:07;;;;;;;9.48;5.40;;;;;;;8.43;95.33;100277.79;1621378;87;20961;-64
2021/10/26 08:41:36;;;;;;;9.50;5.45;;;;;;;8.55;94.99;100278.50;1630283;86;20998;-63
2021/10/26 08:44:04;;;;;;;22.07;5.53;;;;;;;8.65;94.06;100282.66;1649975;86;20979;-63
2021/10/26 08:46:33;;;;;;;11.15;5.10;;;;;;;8.78;93.71;100280.71;1653101;85;21107;-62
2021/10/26 08:49:00;;;;;;;82.97;10.85;;;;;;;8.88;92.40;100271.25;1599225;88;21540;-63
2021/10/26 08:51:51;;;;;;;9.40;4.95;;;;;;;8.94;91.20;100274.41;1649143;86;20979;-63
2021/10/26 08:54:16;;;;;;;8.65;4.87;;;;;;;9.02;90.28;100278.99;1649473;85;20962;-64
2021/10/26 08:57:02;;;;;;;25.25;5.42;;;;;;;9.08;89.90;100279.10;1686255;84;20977;-63
2021/10/26 08:59:49;;;;;;;9.55;4.53;;;;;;;9.18;88.56;100270.05;1682820;83;21063;-63
2021/10/26 09:02:17;;;;;;;11.03;4.20;;;;;;;9.24;86.44;100268.41;1631678;86;20937;-63
2021/10/26 09:04:45;;;;;;;17.55;4.15;;;;;;;9.27;85.41;100265.83;1656248;86;20906;-69
2021/10/26 09:07:20;;;;;;;24.35;4.58;;;;;;;9.32;84.52;100274.69;1684902;85;21514;-63
2021/10/26 09:09:48;;;;;;;8.63;4.08;;;;;;;9.38;83.20;100273.47;1679216;84;20931;-63
2021/10/26 09:18:12;;;;;;;6.62;4.33;;;;;;;9.53;78.49;100262.33;1648896;86;20978;-70
2021/10/26 09:20:40;;;;;;;6.83;4.00;;;;;;;9.63;77.83;100252.81;1649147;85;21480;-62
2021/10/26 09:23:08;;;;;;;9.25;4.20;;;;;;;9.71;77.33;100248.55;1609671;86;20938;-63
2021/10/26 09:25:39;;;;;;;15.38;4.67;;;;;;;9.82;77.02;100258.81;1610111;86;20956;-61
2021/10/26 09:28:17;;;;;;;62.17;8.85;;;;;;;9.90;75.93;100250.58;1652936;86;20983;-65
2021/10/26 09:31:07;;;;;;;13.30;4.97;;;;;;;9.99;74.63;100251.17;1653645;85;20925;-63
2021/10/26 09:33:38;;;;;;;9.90;4.90;;;;;;;10.07;73.56;100238.55;1667795;86;20946;-64
2021/10/26 09:37:08;;;;;;;17.20;4.90;;;;;;;10.26;71.80;100233.54;1798424;79;22682;-64
2021/10/26 09:39:38;;;;;;;37.08;6.70;;;;;;;10.26;70.35;100225.62;1758279;81;20848;-63
2021/10/26 09:42:09;;;;;;;7.65;4.92;;;;;;;10.27;69.86;100232.23;1757502;80;21987;-63
2021/10/26 09:44:44;;;;;;;9.98;4.97;;;;;;;10.30;69.17;100222.16;1758140;81;20978;-64
2021/10/26 09:47:20;;;;;;;6.65;4.70;;;;;;;10.43;69.13;100223.22;1758331;80;20853;-67
2021/10/26 09:50:03;;;;;;;25.35;4.20;;;;;;;10.57;67.63;100215.02;1757576;81;20854;-63
2021/10/26 09:52:43;;;;;;;9.10;3.70;;;;;;;10.69;65.29;100208.55;1715155;82;21505;-62
2021/10/26 09:55:21;;;;;;;10.48;4.20;;;;;;;10.78;63.53;100203.37;1716797;83;21104;-62
2021/10/26 09:57:53;;;;;;;7.12;4.42;;;;;;;10.84;62.65;100202.54;1721050;81;20946;-62
2021/10/26 10:00:37;;;;;;;6.30;4.10;;;;;;;10.89;62.43;100191.19;1718159;81;21575;-63
2021/10/26 10:03:11;;;;;;;7.20;4.25;;;;;;;10.99;62.83;100199.64;1719997;81;21446;-62
2021/10/26 10:05:42;;;;;;;12.78;4.35;;;;;;;11.06;62.43;100182.09;1724173;81;21042;-62
2021/10/26 10:08:34;;;;;;;169.05;16.40;;;;;;;11.03;62.22;100178.98;1724289;81;21847;-63
2021/10/26 10:11:13;;;;;;;6.37;3.20;;;;;;;11.08;62.42;100170.22;1667532;84;21051;-64
2021/10/26 10:13:56;;;;;;;7.42;3.62;;;;;;;11.23;60.71;100175.63;1726774;81;20955;-62
2021/10/26 10:16:28;;;;;;;5.45;3.30;;;;;;;11.40;59.45;100167.84;1754770;80;21494;-63
2021/10/26 10:18:56;;;;;;;16.00;3.83;;;;;;;11.47;58.19;100157.77;1757789;80;21081;-64
2021/10/26 10:21:29;;;;;;;27.77;4.62;;;;;;;11.45;57.85;100160.40;1757642;81;21114;-63
2021/10/26 10:23:59;;;;;;;4.35;3.30;;;;;;;11.44;57.64;100150.70;1757616;80;20948;-63
2021/10/26 10:26:28;;;;;;;13.68;3.50;;;;;;;11.49;57.94;100153.38;1757652;80;20899;-63
2021/10/26 10:28:57;;;;;;;19.00;3.75;;;;;;;11.57;57.29;100141.97;1757641;80;20983;-64
2021/10/26 10:31:26;;;;;;;6.70;3.70;;;;;;;11.63;56.74;100138.04;1757703;80;20972;-63
2021/10/26 10:33:55;;;;;;;5.58;3.75;;;;;;;11.68;56.11;100140.27;1757696;80;21820;-63
2021/10/26 10:36:23;;;;;;;4.58;3.27;;;;;;;11.80;56.06;100130.23;1734914;80;21041;-62
2021/10/26 10:38:56;;;;;;;6.45;3.27;;;;;;;11.96;55.96;100128.56;1754690;80;21502;-63
2021/10/26 10:41:36;;;;;;;7.70;3.35;;;;;;;12.11;55.14;100131.25;1750266;80;21490;-63
2021/10/26 10:44:22;;;;;;;7.03;3.33;;;;;;;12.23;54.36;100128.64;1751790;80;20972;-63
2021/10/26 10:46:56;;;;;;;5.67;3.27;;;;;;;12.29;53.77;100126.45;1741350;81;21506;-63
2021/10/26 10:49:36;;;;;;;30.15;5.72;;;;;;;12.26;53.51;100115.87;1750355;80;20912;-63
2021/10/26 10:52:13;;;;;;;7.50;3.12;;;;;;;12.28;53.04;100112.78;1746116;80;20925;-63
2021/10/26 10:57:35;;;;;;;6.57;3.17;;;;;;;12.25;52.58;100114.98;1754453;80;20959;-63
2021/10/26 11:00:28;;;;;;;5.63;3.10;;;;;;;12.31;52.57;100103.56;1749645;81;21027;-64
2021/10/26 11:02:57;;;;;;;11.00;3.03;;;;;;;12.37;52.69;100097.41;1753138;80;21594;-64
2021/10/26 11:05:37;;;;;;;3.85;2.83;;;;;;;12.50;52.59;100097.86;1754548;80;21462;-63
2021/10/26 11:08:06;;;;;;;7.97;2.95;;;;;;;12.58;51.97;100082.87;1745738;81;21440;-63
2021/10/26 11:10:54;;;;;;;4.78;3.15;;;;;;;12.74;51.52;100079.34;1751907;81;21522;-63
2021/10/26 11:13:34;;;;;;;4.97;2.75;;;;;;;12.90;51.40;100067.89;1711111;82;21187;-63
2021/10/26 11:16:12;;;;;;;4.58;2.92;;;;;;;13.02;50.23;100078.91;1718716;82;20876;-64
2021/10/26 11:18:48;;;;;;;6.75;3.25;;;;;;;13.04;49.53;100074.94;1754701;80;21527;-61
2021/10/26 11:21:28;;;;;;;8.55;3.08;;;;;;;13.09;49.32;100067.42;1754758;80;20996;-61
2021/10/26 11:24:08;;;;;;;4.22;2.90;;;;;;;13.14;49.18;100062.11;1754790;80;20917;-62
2021/10/26 11:26:44;;;;;;;5.35;2.92;;;;;;;13.20;48.67;100058.16;1754741;80;22024;-61
2021/10/26 11:29:14;;;;;;;9.40;2.98;;;;;;;13.31;47.68;100053.74;1755057;80;20985;-61
2021/10/26 11:31:49;;;;;;;4.22;3.15;;;;;;;13.40;46.83;100048.41;1754816;80;21400;-62
2021/10/26 11:34:27;;;;;;;4.60;2.70;;;;;;;13.50;46.79;100045.28;1754997;80;21421;-62
2021/10/26 11:37:06;;;;;;;6.75;2.90;;;;;;;13.43;47.08;100044.43;1748131;80;20882;-62
2021/10/26 11:39:39;;;;;;;7.65;3.00;;;;;;;13.48;46.87;100036.46;1744864;80;21333;-62
2021/10/26 11:42:14;;;;;;;4.42;2.80;;;;;;;13.62;46.87;100033.31;1744657;80;20890;-62
2021/10/26 11:44:43;;;;;;;7.45;2.27;;;;;;;13.73;46.40;100031.52;1732618;81;20961;-61
2021/10/26 11:47:12;;;;;;;5.35;2.67;;;;;;;13.81;46.06;100044.73;1744572;80;20938;-62
2021/10/26 11:49:40;;;;;;;3.52;2.22;;;;;;;13.80;45.49;100035.91;1735564;81;20967;-61